Time;durP1;ratioP1;P1;durP2;ratioP2;P2;SDS_P1;SDS_P2;PMS_P1;PMS_P2;Temp;Humidity;BMP_temperature;BMP_pressure;BME280_temperature;BME280_humidity;BME280_pressure;Samples;Min_cycle;Max_cycle;Signal;HPM_P1;HPM_P2
2022/10/01 00:00:13;;;;;;;7.03;3.90;;;11.30;99.90;;;;;;4231811;28;20113;-86
2022/10/01 00:02:14;;;;;;;6.03;3.97;;;11.30;99.90;;;;;;4214293;28;20413;-86
2022/10/01 00:04:15;;;;;;;9.35;4.53;;;11.30;99.90;;;;;;4212571;28;20135;-85
2022/10/01 00:06:19;;;;;;;7.80;4.15;;;11.30;99.90;;;;;;4231841;28;20068;-85
2022/10/01 00:08:20;;;;;;;7.97;4.15;;;11.30;99.90;;;;;;4231807;28;20036;-85
2022/10/01 00:10:22;;;;;;;7.53;3.65;;;11.30;99.90;;;;;;4231675;28;20399;-86
2022/10/01 00:12:23;;;;;;;10.63;3.80;;;11.20;99.90;;;;;;4232471;28;20048;-85
2022/10/01 00:14:24;;;;;;;6.40;4.13;;;11.20;99.90;;;;;;4235227;28;20046;-86
2022/10/01 00:16:27;;;;;;;5.35;3.88;;;11.20;99.90;;;;;;4216778;28;20044;-85
2022/10/01 00:18:30;;;;;;;7.40;4.70;;;11.20;99.90;;;;;;4210411;28;20058;-86
2022/10/01 00:20:31;;;;;;;4.68;3.80;;;11.20;99.90;;;;;;4230312;28;20059;-85
2022/10/01 00:22:33;;;;;;;7.43;4.60;;;11.20;99.90;;;;;;4238441;28;20043;-86
2022/10/01 00:24:36;;;;;;;7.57;4.40;;;11.20;99.90;;;;;;4235436;28;20103;-86
2022/10/01 00:26:40;;;;;;;8.88;4.65;;;11.20;99.90;;;;;;4234614;28;20088;-86
2022/10/01 00:28:43;;;;;;;7.15;4.60;;;11.20;99.90;;;;;;4235360;28;20040;-86
2022/10/01 00:30:47;;;;;;;11.95;4.75;;;11.20;99.90;;;;;;4233176;28;20066;-86
2022/10/01 00:32:47;;;;;;;8.77;5.18;;;11.10;99.90;;;;;;4199305;28;20055;-86
2022/10/01 00:34:49;;;;;;;8.70;4.97;;;11.20;99.90;;;;;;4234066;28;20076;-86
2022/10/01 00:36:50;;;;;;;7.28;4.63;;;11.10;99.90;;;;;;4240067;27;20060;-86
2022/10/01 00:38:51;;;;;;;8.20;5.05;;;11.10;99.90;;;;;;4250847;27;20031;-86
2022/10/01 00:40:52;;;;;;;8.10;5.68;;;11.10;99.90;;;;;;4246035;27;20437;-86
2022/10/01 00:42:53;;;;;;;8.48;4.65;;;11.10;99.90;;;;;;4231990;28;20324;-86
2022/10/01 00:44:54;;;;;;;7.65;4.82;;;11.10;99.90;;;;;;4232585;28;20146;-86
2022/10/01 00:47:00;;;;;;;8.40;5.18;;;11.10;99.90;;;;;;4250600;27;20764;-86
2022/10/01 00:49:10;;;;;;;9.13;4.93;;;11.10;99.90;;;;;;4215736;28;20148;-86
2022/10/01 00:51:12;;;;;;;9.50;5.63;;;11.10;99.90;;;;;;4232671;28;20066;-86
2022/10/01 00:53:13;;;;;;;9.25;5.45;;;11.10;99.90;;;;;;4216518;28;20040;-86
2022/10/01 00:55:25;;;;;;;7.70;5.38;;;11.10;99.90;;;;;;4232430;28;20047;-86
2022/10/01 00:57:26;;;;;;;8.13;5.55;;;11.10;99.90;;;;;;4231980;28;20108;-86
2022/10/01 00:59:28;;;;;;;10.40;5.70;;;11.10;99.90;;;;;;4232549;28;20551;-86
2022/10/01 01:01:29;;;;;;;9.95;5.63;;;11.00;99.90;;;;;;4249620;27;20076;-87
2022/10/01 01:03:30;;;;;;;7.78;5.40;;;11.00;99.90;;;;;;4249768;27;20075;-86
2022/10/01 01:05:32;;;;;;;8.73;4.97;;;11.00;99.90;;;;;;4250272;27;20100;-86
2022/10/01 01:07:35;;;;;;;9.95;5.22;;;11.00;99.90;;;;;;4214193;28;20071;-86
2022/10/01 01:09:48;;;;;;;8.82;5.38;;;11.00;99.90;;;;;;4250331;27;20042;-86
2022/10/01 01:12:23;;;;;;;7.68;5.15;;;11.00;99.90;;;;;;4249957;27;20407;-86
2022/10/01 01:14:53;;;;;;;8.63;5.25;;;11.00;99.90;;;;;;4245941;27;20126;-86
2022/10/01 01:16:59;;;;;;;7.90;4.88;;;11.00;99.90;;;;;;4236407;28;20048;-86
2022/10/01 01:19:15;;;;;;;9.25;5.07;;;11.00;99.90;;;;;;4226471;28;20116;-86
2022/10/01 01:21:24;;;;;;;7.28;4.82;;;11.00;99.90;;;;;;4222194;28;20060;-86
2022/10/01 01:23:37;;;;;;;8.38;5.20;;;11.00;99.90;;;;;;4220961;28;20052;-86
2022/10/01 01:25:56;;;;;;;9.27;5.63;;;11.00;99.90;;;;;;4236481;28;20059;-86
2022/10/01 01:28:18;;;;;;;8.85;4.85;;;11.00;99.90;;;;;;4232117;28;20439;-86
2022/10/01 01:30:19;;;;;;;8.82;4.75;;;11.00;99.90;;;;;;4250335;27;20043;-86
2022/10/01 01:32:33;;;;;;;7.32;4.32;;;10.90;99.90;;;;;;4201336;28;20452;-86
2022/10/01 01:34:36;;;;;;;7.07;4.80;;;11.00;99.90;;;;;;4233454;28;20131;-86
2022/10/01 01:36:42;;;;;;;10.20;5.05;;;10.90;99.90;;;;;;4233090;28;20035;-87
2022/10/01 01:38:50;;;;;;;8.98;5.03;;;10.90;99.90;;;;;;4198044;28;20048;-86
2022/10/01 01:40:54;;;;;;;7.90;4.57;;;10.90;99.90;;;;;;4214954;28;20105;-86
2022/10/01 01:42:56;;;;;;;7.25;4.70;;;10.90;99.90;;;;;;4214472;28;20059;-86
2022/10/01 01:45:03;;;;;;;6.85;4.40;;;10.90;99.90;;;;;;4198195;28;20406;-86
2022/10/01 01:47:07;;;;;;;9.07;4.88;;;10.90;99.90;;;;;;4214602;28;20040;-86
2022/10/01 01:49:08;;;;;;;6.78;4.45;;;10.90;99.90;;;;;;4197486;28;20052;-86
2022/10/01 01:51:24;;;;;;;10.10;5.32;;;10.90;99.90;;;;;;4232506;28;20059;-86
2022/10/01 01:53:25;;;;;;;12.02;4.95;;;10.90;99.90;;;;;;4214605;28;20127;-86
2022/10/01 01:55:28;;;;;;;8.40;4.60;;;10.80;99.90;;;;;;4232917;28;20050;-86
2022/10/01 01:57:30;;;;;;;8.98;4.45;;;10.80;99.90;;;;;;4197008;28;20053;-86
2022/10/01 01:59:32;;;;;;;6.82;4.82;;;10.80;99.90;;;;;;4214170;28;20047;-86
2022/10/01 02:01:41;;;;;;;7.65;4.18;;;10.80;99.90;;;;;;4197023;28;20106;-86
2022/10/01 02:03:42;;;;;;;5.57;3.55;;;10.80;99.90;;;;;;4232557;28;20373;-86
2022/10/01 02:05:57;;;;;;;7.40;4.05;;;10.80;99.90;;;;;;4214575;28;20132;-87
2022/10/01 02:08:24;;;;;;;7.07;4.38;;;10.80;99.90;;;;;;4238412;27;20047;-87
2022/10/01 02:10:31;;;;;;;6.60;3.92;;;10.80;99.90;;;;;;4248820;27;20156;-87
2022/10/01 02:13:07;;;;;;;7.22;4.00;;;10.80;99.90;;;;;;4214431;28;20059;-86
2022/10/01 02:15:26;;;;;;;8.00;4.57;;;10.80;99.90;;;;;;4231029;27;20047;-87
2022/10/01 02:17:33;;;;;;;5.82;4.07;;;10.80;99.90;;;;;;4249555;27;20031;-86
2022/10/01 02:19:42;;;;;;;7.93;4.72;;;10.80;99.90;;;;;;4248928;27;20108;-86
2022/10/01 02:21:59;;;;;;;6.95;4.47;;;10.80;99.90;;;;;;4249059;27;20043;-86
2022/10/01 02:24:02;;;;;;;6.18;4.03;;;10.80;99.90;;;;;;4249316;27;20383;-86
2022/10/01 02:26:11;;;;;;;7.32;3.72;;;10.80;99.90;;;;;;4248419;27;20043;-86
2022/10/01 02:28:15;;;;;;;;;;;10.80;99.90;;;;;;4249214;27;20051;-86
2022/10/01 02:30:16;;;;;;;8.15;3.60;;;10.80;99.90;;;;;;4229958;28;20387;-86
2022/10/01 02:32:18;;;;;;;5.55;3.90;;;10.70;99.90;;;;;;4248598;27;20146;-87
2022/10/01 02:34:21;;;;;;;5.25;3.45;;;10.70;99.90;;;;;;4230372;28;20043;-87
2022/10/01 02:36:24;;;;;;;6.00;3.58;;;10.70;99.90;;;;;;4229898;28;20039;-87
2022/10/01 02:38:26;;;;;;;4.90;3.25;;;10.80;99.90;;;;;;4248192;27;20075;-87
2022/10/01 02:40:30;;;;;;;5.32;3.70;;;10.70;99.90;;;;;;4230303;28;20058;-87
2022/10/01 02:42:33;;;;;;;6.22;2.88;;;10.70;99.90;;;;;;4213395;28;20048;-87
2022/10/01 02:44:38;;;;;;;5.72;3.30;;;10.70;99.90;;;;;;4212589;28;20048;-87
2022/10/01 02:47:06;;;;;;;4.47;3.10;;;10.70;99.90;;;;;;4230416;28;20549;-87
2022/10/01 02:49:08;;;;;;;6.35;3.08;;;10.80;99.90;;;;;;4199646;28;20056;-87
2022/10/01 02:51:38;;;;;;;8.68;2.95;;;10.70;99.90;;;;;;4229286;28;20070;-87
2022/10/01 02:53:46;;;;;;;4.45;3.15;;;10.70;99.90;;;;;;4230363;27;20068;-86
2022/10/01 02:55:48;;;;;;;4.30;3.10;;;10.70;99.90;;;;;;4212957;28;20522;-86
2022/10/01 02:57:49;;;;;;;4.47;3.15;;;10.70;99.90;;;;;;4229821;28;20044;-86
2022/10/01 02:59:50;;;;;;;3.78;2.75;;;10.80;99.90;;;;;;4248603;27;20470;-86
2022/10/01 03:01:51;;;;;;;5.20;3.70;;;10.80;99.90;;;;;;4230382;28;20548;-86
2022/10/01 03:03:53;;;;;;;4.90;3.08;;;10.80;99.90;;;;;;4247925;27;20035;-86
2022/10/01 03:05:55;;;;;;;5.10;2.90;;;10.80;99.90;;;;;;4247815;27;20058;-86
2022/10/01 03:07:56;;;;;;;3.72;2.72;;;10.80;99.90;;;;;;4223595;28;20543;-86
2022/10/01 03:09:57;;;;;;;4.47;2.80;;;10.80;99.90;;;;;;4213309;28;20047;-86
2022/10/01 03:11:58;;;;;;;3.78;2.63;;;10.80;99.90;;;;;;4212751;28;20054;-87
2022/10/01 03:14:00;;;;;;;4.57;2.95;;;10.80;99.90;;;;;;4212958;28;20079;-87
2022/10/01 03:16:01;;;;;;;5.00;3.17;;;10.80;99.90;;;;;;4230889;28;20043;-86
2022/10/01 03:18:02;;;;;;;4.13;2.97;;;10.80;99.90;;;;;;4212958;28;20081;-87
2022/10/01 03:20:04;;;;;;;3.72;3.00;;;10.80;99.90;;;;;;4211522;28;20618;-86
2022/10/01 03:22:06;;;;;;;4.63;2.78;;;10.90;99.90;;;;;;4195260;28;20114;-86
2022/10/01 03:24:06;;;;;;;6.40;2.75;;;10.90;99.90;;;;;;4230092;28;20079;-86
2022/10/01 03:26:07;;;;;;;4.90;3.08;;;10.90;99.90;;;;;;4230136;28;20468;-86
2022/10/01 03:28:08;;;;;;;4.07;2.85;;;10.90;99.90;;;;;;4230169;28;20150;-86
2022/10/01 03:30:09;;;;;;;5.10;2.30;;;10.90;99.90;;;;;;4211472;28;20079;-86
2022/10/01 03:32:11;;;;;;;4.25;2.60;;;10.90;99.90;;;;;;4230050;28;20474;-86
2022/10/01 03:34:14;;;;;;;6.40;2.92;;;10.90;99.90;;;;;;4218045;28;20070;-86
2022/10/01 03:36:15;;;;;;;3.15;2.67;;;11.00;99.90;;;;;;4247571;27;20035;-86
2022/10/01 03:38:16;;;;;;;4.40;2.80;;;10.90;99.90;;;;;;4212286;28;20069;-86
2022/10/01 03:40:17;;;;;;;4.85;2.90;;;11.00;99.90;;;;;;4248332;27;20035;-87
2022/10/01 03:42:18;;;;;;;3.33;2.33;;;11.00;99.90;;;;;;4230184;28;20063;-86
2022/10/01 03:44:18;;;;;;;3.78;2.63;;;11.00;99.90;;;;;;4213407;28;20131;-86
2022/10/01 03:46:19;;;;;;;3.17;2.30;;;11.00;99.90;;;;;;4230413;28;20055;-86
2022/10/01 03:48:20;;;;;;;2.83;2.42;;;11.00;99.90;;;;;;4231986;28;20047;-87
2022/10/01 03:50:20;;;;;;;2.83;2.22;;;11.00;99.90;;;;;;4251592;27;20058;-87
2022/10/01 03:52:21;;;;;;;4.53;2.58;;;11.10;99.90;;;;;;4233736;28;20083;-87
2022/10/01 03:54:22;;;;;;;2.30;1.48;;;11.10;99.90;;;;;;4234393;28;20070;-87
2022/10/01 03:56:26;;;;;;;3.92;2.47;;;11.10;99.90;;;;;;4216290;28;20056;-86
2022/10/01 03:58:28;;;;;;;3.05;1.88;;;11.10;99.90;;;;;;4251302;27;20616;-86
2022/10/01 04:00:28;;;;;;;2.58;1.90;;;11.10;99.90;;;;;;4234232;28;20047;-86
2022/10/01 04:02:29;;;;;;;2.67;1.90;;;11.10;99.90;;;;;;4251616;27;20490;-86
2022/10/01 04:04:31;;;;;;;2.47;1.85;;;11.10;99.90;;;;;;4251639;27;20102;-86
2022/10/01 04:06:32;;;;;;;2.92;1.55;;;10.30;99.90;;;;;;4251486;27;20073;-86
2022/10/01 04:08:33;;;;;;;2.58;1.80;;;11.20;99.90;;;;;;4233036;28;20403;-86
2022/10/01 04:10:34;;;;;;;2.30;1.60;;;11.20;99.90;;;;;;4233017;28;20048;-86
2022/10/01 04:12:34;;;;;;;1.73;1.27;;;11.20;99.90;;;;;;4233281;28;20082;-87
2022/10/01 04:14:35;;;;;;;2.35;1.35;;;11.20;99.90;;;;;;4233415;28;20483;-87
2022/10/01 04:16:36;;;;;;;2.65;1.67;;;11.20;99.90;;;;;;4215738;28;20044;-86
2022/10/01 04:18:37;;;;;;;2.30;1.63;;;11.20;99.90;;;;;;4232988;28;20511;-86
2022/10/01 04:20:38;;;;;;;3.08;1.70;;;11.10;99.90;;;;;;4233182;28;20557;-86
2022/10/01 04:22:39;;;;;;;2.00;1.40;;;11.20;99.90;;;;;;4251085;27;20050;-87
2022/10/01 04:24:40;;;;;;;1.63;1.23;;;11.10;99.90;;;;;;4233034;28;20130;-86
2022/10/01 04:26:41;;;;;;;2.67;1.17;;;11.20;99.90;;;;;;4248142;27;20046;-87
2022/10/01 04:28:45;;;;;;;2.30;1.25;;;11.10;99.90;;;;;;4225142;28;20132;-86
2022/10/01 04:30:46;;;;;;;1.55;1.38;;;11.20;99.90;;;;;;4251502;27;20448;-87
2022/10/01 04:32:50;;;;;;;1.90;1.30;;;11.20;99.90;;;;;;4232658;28;20447;-86
2022/10/01 04:34:51;;;;;;;2.00;1.42;;;11.20;99.90;;;;;;4232910;28;20044;-87
2022/10/01 04:36:52;;;;;;;2.03;1.38;;;11.20;99.90;;;;;;4251436;27;20040;-86
2022/10/01 04:38:54;;;;;;;2.55;1.80;;;11.20;99.90;;;;;;4251374;27;20066;-86
2022/10/01 04:40:55;;;;;;;1.52;1.08;;;11.20;99.90;;;;;;4216201;28;20055;-87
2022/10/01 04:42:56;;;;;;;2.05;1.20;;;11.20;99.90;;;;;;4232666;28;20574;-87
2022/10/01 04:44:56;;;;;;;1.48;1.15;;;11.20;99.90;;;;;;4215888;28;20044;-86
2022/10/01 04:46:57;;;;;;;1.08;0.98;;;11.20;99.90;;;;;;4247474;27;20407;-86
2022/10/01 04:48:58;;;;;;;2.22;1.10;;;11.20;99.90;;;;;;4249623;27;20039;-86
2022/10/01 04:51:00;;;;;;;1.23;1.13;;;11.20;99.90;;;;;;4249961;27;20510;-86
2022/10/01 04:53:01;;;;;;;1.75;1.20;;;11.30;99.90;;;;;;4232177;28;20031;-86
2022/10/01 04:55:02;;;;;;;1.70;1.30;;;11.30;99.90;;;;;;4253284;27;20039;-86
2022/10/01 04:57:02;;;;;;;3.65;1.38;;;11.30;99.90;;;;;;4232341;28;20097;-86
2022/10/01 04:59:03;;;;;;;1.42;1.23;;;11.30;99.90;;;;;;4249513;27;20131;-86
2022/10/01 05:01:05;;;;;;;2.60;1.40;;;11.40;99.90;;;;;;4250709;27;20524;-86
2022/10/01 05:03:06;;;;;;;1.70;1.10;;;11.40;99.90;;;;;;4250017;27;20043;-86
2022/10/01 05:05:07;;;;;;;1.40;1.27;;;11.40;99.90;;;;;;4232456;28;20046;-86
2022/10/01 05:07:08;;;;;;;2.03;1.55;;;11.40;99.90;;;;;;4232533;28;20158;-86
2022/10/01 05:09:10;;;;;;;1.70;1.30;;;11.40;99.90;;;;;;4232101;28;20074;-86
2022/10/01 05:11:11;;;;;;;1.77;1.35;;;11.40;99.90;;;;;;4250483;27;20039;-86
2022/10/01 05:13:12;;;;;;;2.25;1.27;;;11.40;99.90;;;;;;4249722;27;20609;-86
2022/10/01 05:15:14;;;;;;;1.75;1.50;;;11.40;99.90;;;;;;4250276;27;20122;-86
2022/10/01 05:17:16;;;;;;;2.03;1.42;;;11.40;99.90;;;;;;4232057;28;20569;-86
2022/10/01 05:19:16;;;;;;;2.53;1.58;;;11.40;99.90;;;;;;4231854;28;20047;-86
2022/10/01 05:21:17;;;;;;;1.88;1.67;;;11.40;99.90;;;;;;4232384;28;20511;-86
2022/10/01 05:23:18;;;;;;;2.78;1.40;;;11.50;99.90;;;;;;4248183;27;20043;-86
2022/10/01 05:25:20;;;;;;;2.33;1.60;;;11.50;99.90;;;;;;4215673;28;20123;-86
2022/10/01 05:27:21;;;;;;;2.35;1.52;;;11.50;99.90;;;;;;4233127;28;20055;-86
2022/10/01 05:29:22;;;;;;;2.72;1.70;;;11.50;99.90;;;;;;4246515;27;20038;-86
2022/10/01 05:31:23;;;;;;;3.67;1.58;;;11.50;99.90;;;;;;4232220;28;20491;-86
2022/10/01 05:33:24;;;;;;;2.00;1.60;;;11.50;99.90;;;;;;4214940;28;20066;-86
2022/10/01 05:35:25;;;;;;;2.65;1.80;;;11.50;99.90;;;;;;4231652;28;20090;-86
2022/10/01 05:37:27;;;;;;;2.40;1.58;;;11.50;99.90;;;;;;4249847;27;20039;-86
2022/10/01 05:39:31;;;;;;;3.17;1.73;;;11.50;99.90;;;;;;4231466;28;20090;-86
2022/10/01 05:41:32;;;;;;;2.17;1.52;;;11.50;99.90;;;;;;4214569;28;20134;-86
2022/10/01 05:43:35;;;;;;;2.65;1.95;;;11.60;99.90;;;;;;4213271;28;20488;-86
2022/10/01 05:45:35;;;;;;;2.67;1.77;;;11.60;99.90;;;;;;4248577;27;20050;-86
2022/10/01 05:47:38;;;;;;;2.95;1.73;;;11.50;99.90;;;;;;4248794;27;20402;-86
2022/10/01 05:49:43;;;;;;;2.10;1.67;;;11.60;99.90;;;;;;4248446;27;20044;-86
2022/10/01 05:51:44;;;;;;;3.70;2.00;;;11.60;99.90;;;;;;4230490;28;20056;-86
2022/10/01 05:53:47;;;;;;;3.58;2.25;;;11.60;99.90;;;;;;4249019;27;20051;-86
2022/10/01 05:55:48;;;;;;;3.47;2.00;;;11.60;99.90;;;;;;4214170;28;20052;-86
2022/10/01 05:57:56;;;;;;;2.78;2.20;;;11.60;99.90;;;;;;4226009;28;20075;-86
2022/10/01 05:59:57;;;;;;;2.72;2.00;;;11.60;99.90;;;;;;4237962;27;20046;-86
2022/10/01 06:01:59;;;;;;;4.85;2.45;;;11.70;99.90;;;;;;4249875;27;20074;-86
2022/10/01 06:04:00;;;;;;;6.05;2.42;;;11.70;99.90;;;;;;4230640;28;20515;-86
2022/10/01 06:06:01;;;;;;;3.88;2.00;;;11.70;99.90;;;;;;4231886;28;20044;-86
2022/10/01 06:08:05;;;;;;;4.57;2.42;;;11.70;99.90;;;;;;4230606;28;20083;-86
2022/10/01 06:10:09;;;;;;;4.53;2.83;;;11.70;99.90;;;;;;4249031;27;20071;-86
2022/10/01 06:12:10;;;;;;;2.88;2.13;;;11.70;99.90;;;;;;4214585;28;20051;-86
2022/10/01 06:14:10;;;;;;;4.82;2.53;;;11.80;99.90;;;;;;4231018;28;20523;-85
2022/10/01 06:16:12;;;;;;;4.93;2.53;;;11.70;99.90;;;;;;4248949;27;20487;-86
2022/10/01 06:18:13;;;;;;;3.97;2.85;;;11.80;99.90;;;;;;4230628;28;20482;-86
2022/10/01 06:20:17;;;;;;;4.20;2.50;;;11.80;99.90;;;;;;4246171;27;20076;-87
2022/10/01 06:22:17;;;;;;;5.57;2.97;;;11.80;99.90;;;;;;4241338;27;20379;-86
2022/10/01 06:24:18;;;;;;;6.75;2.95;;;11.90;99.90;;;;;;4214031;28;20047;-87
2022/10/01 06:26:19;;;;;;;6.20;2.97;;;11.90;99.90;;;;;;4239333;27;20122;-87
2022/10/01 06:28:20;;;;;;;5.55;2.83;;;11.90;99.90;;;;;;4230293;28;20507;-87
2022/10/01 06:30:21;;;;;;;5.85;2.60;;;11.90;99.90;;;;;;4230638;28;20051;-87
2022/10/01 06:32:22;;;;;;;4.95;3.20;;;11.90;99.90;;;;;;4249216;27;20042;-87
2022/10/01 06:34:22;;;;;;;5.70;2.75;;;11.90;99.90;;;;;;4230556;28;20116;-87
2022/10/01 06:36:23;;;;;;;5.05;3.00;;;12.00;99.90;;;;;;4248920;27;20433;-86
2022/10/01 06:38:25;;;;;;;7.60;3.00;;;12.00;99.90;;;;;;4248844;27;20481;-86
2022/10/01 06:40:26;;;;;;;7.30;3.42;;;12.00;99.90;;;;;;4248805;27;20042;-86
2022/10/01 06:42:27;;;;;;;4.13;2.80;;;12.00;99.90;;;;;;4213278;28;20484;-86
2022/10/01 06:44:28;;;;;;;5.80;3.38;;;12.00;99.90;;;;;;4248780;27;20049;-87
2022/10/01 06:46:30;;;;;;;6.00;3.47;;;12.00;99.90;;;;;;4248766;27;20047;-86
2022/10/01 06:48:32;;;;;;;6.30;3.08;;;12.00;99.90;;;;;;4249041;27;20050;-86
2022/10/01 06:50:33;;;;;;;7.90;4.00;;;12.00;99.90;;;;;;4248500;27;20092;-87
2022/10/01 06:52:50;;;;;;;7.80;3.58;;;12.00;99.90;;;;;;4229930;28;20046;-86
2022/10/01 06:54:54;;;;;;;6.07;3.13;;;12.10;99.90;;;;;;4249480;27;20036;-87
2022/10/01 06:56:54;;;;;;;7.20;3.45;;;11.30;99.90;;;;;;4250209;27;20483;-86
2022/10/01 06:58:55;;;;;;;6.07;3.75;;;12.10;99.90;;;;;;4248416;27;20073;-86
2022/10/01 07:01:00;;;;;;;6.65;3.92;;;12.20;99.90;;;;;;4231509;28;20490;-86
2022/10/01 07:03:05;;;;;;;8.60;3.55;;;12.30;99.90;;;;;;4231207;28;20044;-86
2022/10/01 07:05:07;;;;;;;7.20;3.83;;;12.30;99.90;;;;;;4229816;28;20114;-86
2022/10/01 07:07:10;;;;;;;10.95;4.97;;;12.40;99.90;;;;;;4229986;28;20116;-86
2022/10/01 07:09:11;;;;;;;6.97;3.78;;;12.50;99.90;;;;;;4230207;28;20047;-86
2022/10/01 07:11:12;;;;;;;7.78;4.10;;;12.50;99.90;;;;;;4248377;27;20535;-85
2022/10/01 07:13:17;;;;;;;9.98;4.28;;;12.60;99.90;;;;;;4230471;28;20416;-86
2022/10/01 07:15:24;;;;;;;10.18;3.70;;;12.50;99.90;;;;;;4213675;28;20078;-85
2022/10/01 07:17:25;;;;;;;8.77;3.35;;;12.70;99.90;;;;;;4248842;27;20540;-86
2022/10/01 07:19:26;;;;;;;7.72;3.65;;;12.80;99.90;;;;;;4230983;28;20051;-86
2022/10/01 07:21:27;;;;;;;7.47;3.85;;;12.80;99.90;;;;;;4230007;28;20127;-85
2022/10/01 07:23:29;;;;;;;11.45;3.90;;;12.90;99.90;;;;;;4248090;28;20461;-86
2022/10/01 07:25:30;;;;;;;13.43;3.75;;;12.90;99.90;;;;;;4230722;28;20581;-86
2022/10/01 07:27:30;;;;;;;10.27;4.18;;;12.90;99.90;;;;;;4230656;28;20075;-86
2022/10/01 07:29:31;;;;;;;10.45;3.60;;;12.90;99.90;;;;;;4249139;28;20403;-86
2022/10/01 07:31:33;;;;;;;8.07;3.53;;;12.90;99.90;;;;;;4230841;28;20114;-85
2022/10/01 07:33:34;;;;;;;9.70;3.63;;;13.00;99.90;;;;;;4231021;28;20384;-86
2022/10/01 07:35:37;;;;;;;10.65;3.53;;;13.10;99.90;;;;;;4249093;28;20045;-86
2022/10/01 07:37:37;;;;;;;14.77;4.30;;;13.10;99.90;;;;;;4248893;28;20035;-86
2022/10/01 07:39:38;;;;;;;7.40;3.25;;;12.80;99.90;;;;;;4230910;28;20148;-86
2022/10/01 07:41:41;;;;;;;13.95;4.10;;;13.10;99.90;;;;;;4213549;28;20047;-85
2022/10/01 07:43:42;;;;;;;8.38;3.38;;;13.20;99.90;;;;;;4248203;28;20075;-86
2022/10/01 07:45:45;;;;;;;7.80;3.70;;;13.40;99.90;;;;;;4213741;28;20044;-86
2022/10/01 07:47:58;;;;;;;7.50;2.70;;;13.90;99.90;;;;;;4248331;28;20047;-86
2022/10/01 07:49:59;;;;;;;7.75;2.60;;;14.70;99.90;;;;;;4230652;28;20052;-87
2022/10/01 07:52:00;;;;;;;10.25;2.47;;;15.50;99.90;;;;;;4230245;28;20051;-86
2022/10/01 07:54:01;;;;;;;6.68;1.98;;;15.20;99.90;;;;;;4214166;28;20303;-86
2022/10/01 07:56:02;;;;;;;6.15;1.67;;;16.40;99.90;;;;;;4230301;28;20093;-87
2022/10/01 07:58:03;;;;;;;5.57;1.98;;;16.90;99.90;;;;;;4229985;28;20051;-87
2022/10/01 08:00:05;;;;;;;7.07;1.88;;;17.20;99.90;;;;;;4230698;28;20048;-87
2022/10/01 08:02:14;;;;;;;5.32;1.63;;;17.50;99.90;;;;;;4229700;28;20510;-87
2022/10/01 08:06:41;;;;;;;6.00;2.42;;;18.30;99.90;;;;;;4209595;28;20662;-88
2022/10/01 08:08:42;;;;;;;6.20;1.80;;;18.60;99.90;;;;;;4247945;28;20047;-88
2022/10/01 08:10:42;;;;;;;3.85;1.80;;;19.00;99.90;;;;;;4248389;28;20047;-86
2022/10/01 08:12:44;;;;;;;6.50;1.95;;;19.10;99.90;;;;;;4228899;28;20123;-87
2022/10/01 08:14:46;;;;;;;7.18;2.47;;;19.40;99.90;;;;;;4228682;28;20043;-88
2022/10/01 08:16:47;;;;;;;5.40;1.73;;;19.60;99.90;;;;;;4229230;28;20040;-87
2022/10/01 08:18:51;;;;;;;6.18;1.52;;;19.60;99.90;;;;;;4229186;28;20098;-87
2022/10/01 08:20:52;;;;;;;6.97;1.40;;;19.90;99.90;;;;;;4247780;28;20039;-86
2022/10/01 08:22:53;;;;;;;4.85;1.00;;;20.00;99.90;;;;;;4246892;28;20099;-87
2022/10/01 08:24:55;;;;;;;8.80;1.50;;;19.80;99.90;;;;;;4247166;28;20100;-88
2022/10/01 08:26:56;;;;;;;5.43;1.50;;;19.80;99.90;;;;;;4223761;28;20093;-89
2022/10/01 08:28:58;;;;;;;4.63;0.90;;;20.40;99.90;;;;;;4212903;28;20484;-89
2022/10/01 08:31:06;;;;;;;5.57;1.20;;;20.70;99.90;;;;;;4229795;28;20578;-88
2022/10/01 08:33:09;;;;;;;7.70;1.52;;;21.00;99.90;;;;;;4247442;27;20510;-89
2022/10/01 08:35:11;;;;;;;10.95;2.22;;;21.40;99.00;;;;;;4232497;28;20040;-88
2022/10/01 08:37:13;;;;;;;8.60;1.58;;;21.40;99.20;;;;;;4251185;27;20085;-88
2022/10/01 08:39:15;;;;;;;10.30;1.50;;;21.50;99.00;;;;;;4215826;28;20052;-88
2022/10/01 08:41:40;;;;;;;5.43;1.83;;;21.60;98.70;;;;;;4232786;28;20141;-88
2022/10/01 08:43:41;;;;;;;8.43;1.50;;;21.90;96.70;;;;;;4246556;27;20147;-88
2022/10/01 08:45:54;;;;;;;5.50;1.23;;;21.90;98.20;;;;;;4199742;28;20162;-88
2022/10/01 08:48:05;;;;;;;6.50;1.17;;;21.90;97.60;;;;;;4200477;28;20484;-88
2022/10/01 08:51:04;;;;;;;9.52;1.35;;;22.00;97.10;;;;;;4199545;28;20416;-88
2022/10/01 08:53:20;;;;;;;11.25;1.40;;;22.20;96.30;;;;;;4165963;28;20208;-88
2022/10/01 08:55:24;;;;;;;8.68;1.60;;;22.50;96.80;;;;;;4154739;28;20092;-88
2022/10/01 08:57:40;;;;;;;10.48;1.30;;;22.40;96.70;;;;;;4172141;28;20108;-89
2022/10/01 08:59:43;;;;;;;6.15;1.20;;;22.40;93.00;;;;;;4234673;27;20058;-88
2022/10/01 09:01:45;;;;;;;13.90;1.55;;;21.60;95.60;;;;;;4203764;28;20052;-88
2022/10/01 09:03:48;;;;;;;6.20;0.95;;;20.50;96.50;;;;;;4199822;28;20456;-88
2022/10/01 09:06:08;;;;;;;12.23;1.85;;;19.60;97.90;;;;;;4233927;28;20044;-87
2022/10/01 09:08:50;;;;;;;4.75;0.85;;;18.90;98.50;;;;;;4215335;28;20040;-88
2022/10/01 09:10:56;;;;;;;8.43;1.73;;;18.40;99.80;;;;;;4165866;28;20073;-88
2022/10/01 09:13:18;;;;;;;7.75;1.20;;;18.10;99.90;;;;;;4165772;28;20049;-88
2022/10/01 09:15:35;;;;;;;8.70;1.30;;;18.10;99.90;;;;;;4159421;28;20144;-88
2022/10/01 09:18:05;;;;;;;5.80;1.38;;;18.80;99.90;;;;;;4199226;28;20052;-89
2022/10/01 09:20:29;;;;;;;9.13;1.15;;;19.10;99.10;;;;;;4229507;28;20054;-90
2022/10/01 09:22:51;;;;;;;7.53;1.52;;;18.60;98.80;;;;;;4248820;27;20552;-89
2022/10/01 09:25:22;;;;;;;7.63;1.48;;;18.30;99.10;;;;;;4217927;28;20044;-89
2022/10/01 09:27:26;;;;;;;7.85;1.85;;;18.40;98.80;;;;;;4207441;28;20440;-89
2022/10/01 09:29:39;;;;;;;10.38;2.55;;;19.20;98.70;;;;;;4218806;28;20111;-89
2022/10/01 09:31:46;;;;;;;11.45;2.75;;;19.80;97.90;;;;;;4218634;28;20051;-89
2022/10/01 09:34:14;;;;;;;7.35;1.20;;;20.30;96.70;;;;;;4253029;27;20047;-89
2022/10/01 09:36:36;;;;;;;6.15;1.67;;;20.70;95.80;;;;;;4218628;28;20106;-89
2022/10/01 09:38:41;;;;;;;5.07;1.50;;;21.00;95.70;;;;;;4210522;28;20056;-89
2022/10/01 09:40:54;;;;;;;5.13;1.10;;;21.20;95.40;;;;;;4210110;28;20052;-89
2022/10/01 09:42:55;;;;;;;8.63;0.93;;;21.40;93.10;;;;;;4221358;28;20044;-87
2022/10/01 09:44:58;;;;;;;5.15;0.85;;;20.60;93.80;;;;;;4236321;28;20054;-89
2022/10/01 09:47:00;;;;;;;7.95;1.05;;;20.10;94.60;;;;;;4217825;28;20047;-88
2022/10/01 09:49:12;;;;;;;9.27;1.17;;;19.80;95.20;;;;;;4232586;28;20035;-87
2022/10/01 09:51:17;;;;;;;6.18;0.88;;;19.90;94.80;;;;;;4242993;27;20059;-87
2022/10/01 09:53:20;;;;;;;4.72;1.83;;;19.90;94.70;;;;;;4249771;27;20075;-87
2022/10/01 09:55:35;;;;;;;3.63;1.27;;;19.40;95.10;;;;;;4249550;27;20132;-87
2022/10/01 09:58:06;;;;;;;7.72;2.08;;;18.90;95.40;;;;;;4249236;27;20043;-86
2022/10/01 10:00:22;;;;;;;4.57;1.25;;;18.30;95.30;;;;;;4224027;28;20052;-87
2022/10/01 10:02:32;;;;;;;4.53;1.13;;;17.70;96.30;;;;;;4231228;28;20085;-85
2022/10/01 10:04:34;;;;;;;5.03;0.70;;;17.10;96.30;;;;;;4230622;28;20097;-85
2022/10/01 10:06:36;;;;;;;8.45;1.60;;;16.70;97.60;;;;;;4246992;27;20092;-86
2022/10/01 10:08:41;;;;;;;6.28;0.60;;;16.30;97.90;;;;;;4219418;28;20040;-86
2022/10/01 10:10:57;;;;;;;5.35;1.02;;;15.90;98.70;;;;;;4248233;27;20454;-86
2022/10/01 10:13:09;;;;;;;3.33;0.68;;;15.60;99.00;;;;;;4248804;27;20037;-86
2022/10/01 10:15:20;;;;;;;3.78;0.40;;;15.40;99.40;;;;;;4249412;27;20468;-87
2022/10/01 10:17:21;;;;;;;5.72;0.95;;;15.20;99.80;;;;;;4249205;27;20074;-86
2022/10/01 10:19:29;;;;;;;4.78;0.73;;;15.10;99.90;;;;;;4249087;27;20031;-85
2022/10/01 10:21:36;;;;;;;7.20;0.65;;;14.90;99.90;;;;;;4248490;27;20083;-84
2022/10/01 10:23:52;;;;;;;3.88;0.98;;;14.90;99.90;;;;;;4251159;27;20042;-83
2022/10/01 10:26:01;;;;;;;10.07;1.25;;;14.80;99.90;;;;;;4248092;27;20047;-83
2022/10/01 10:28:23;;;;;;;6.88;0.70;;;14.60;99.90;;;;;;4230618;28;20085;-85
2022/10/01 10:30:25;;;;;;;5.97;0.68;;;14.40;99.90;;;;;;4211911;28;20050;-85
2022/10/01 10:32:27;;;;;;;4.05;0.73;;;14.20;99.90;;;;;;4230369;28;20138;-84
2022/10/01 10:34:41;;;;;;;7.88;0.63;;;14.10;99.90;;;;;;4247162;27;20046;-84
2022/10/01 10:36:43;;;;;;;6.78;0.85;;;13.80;99.90;;;;;;4230682;28;20055;-84
2022/10/01 10:38:48;;;;;;;7.13;0.77;;;13.90;99.90;;;;;;4249273;27;20058;-84
2022/10/01 10:40:49;;;;;;;4.10;0.50;;;13.90;99.90;;;;;;4248830;27;20046;-84
2022/10/01 10:42:53;;;;;;;2.50;0.60;;;13.80;99.90;;;;;;4249268;27;20092;-84
2022/10/01 10:44:57;;;;;;;4.50;0.60;;;13.80;99.90;;;;;;4231072;28;20047;-83
2022/10/01 10:47:05;;;;;;;5.40;1.27;;;13.70;99.90;;;;;;4248690;27;20043;-83
2022/10/01 10:49:15;;;;;;;4.28;0.65;;;13.70;99.90;;;;;;4230774;28;20055;-84
2022/10/01 10:51:18;;;;;;;1.73;0.50;;;13.70;99.90;;;;;;4248674;27;20055;-84